Boyle, Mississippi
Current Conditions -  °F | °C
As of 6:55 AM on Saturday 20 Dec 2014 (Local Time) from KRNV Reporting Station
Clear Clear  
Wind Chill: 31°   Ceiling: Unl
Heat Index: 36°   Visibility: 10mi
Dew Point: 35°   Wind: 6mph
Humidity: 97%   Direction: 30°NNE
Pressure: 30.25"   Gusts: NA
Location:  33.7°N, 90.73°W
Report Text: KRNV 201255Z AUTO 03005KT 10SM CLR 02/02 A3025 RMK AO2 T00220018
Loading
Personal Weather Stations






























Interactive Weather Map New forecast layout! Learn more

10-Day Weather Forecast

Advertisements
Track Severe Weather on mobile